Time;durP1;ratioP1;P1;durP2;ratioP2;P2;SDS_P1;SDS_P2;PMS_P1;PMS_P2;Temp;Humidity;BMP_temperature;BMP_pressure;BME280_temperature;BME280_humidity;BME280_pressure;Samples;Min_cycle;Max_cycle;Signal;HPM_P1;HPM_P2
2023/10/12 00:01:58;;;;;;;13.73;1.95;;;13.30;99.90;;;;;;5035973;28;20087;-68
2023/10/12 00:04:37;;;;;;;12.02;1.98;;;13.30;99.90;;;;;;5036814;28;20387;-69
2023/10/12 00:07:27;;;;;;;8.40;1.58;;;13.30;99.90;;;;;;5053461;28;20052;-69
2023/10/12 00:10:12;;;;;;;7.40;1.85;;;13.30;99.90;;;;;;5036532;28;20053;-70
2023/10/12 00:12:44;;;;;;;10.80;1.92;;;13.20;99.90;;;;;;5053893;28;20061;-69
2023/10/12 00:15:29;;;;;;;12.80;1.80;;;13.30;99.90;;;;;;5053883;28;20433;-69
2023/10/12 00:17:57;;;;;;;8.25;1.27;;;13.10;99.90;;;;;;5036247;28;20380;-69
2023/10/12 00:22:58;;;;;;;8.73;2.10;;;13.10;99.90;;;;;;5053068;28;20052;-69
2023/10/12 00:25:25;;;;;;;9.75;1.65;;;13.10;99.90;;;;;;5053780;28;20119;-72
2023/10/12 00:27:51;;;;;;;8.25;1.50;;;13.00;99.90;;;;;;5052612;28;20098;-72
2023/10/12 00:30:17;;;;;;;8.55;1.80;;;13.00;99.90;;;;;;5034970;28;20476;-72
2023/10/12 00:32:43;;;;;;;9.60;1.60;;;13.00;99.90;;;;;;5036387;28;20060;-72
2023/10/12 00:35:13;;;;;;;8.55;1.75;;;13.00;99.90;;;;;;5052795;28;20041;-72
2023/10/12 00:37:41;;;;;;;10.13;1.60;;;12.90;99.90;;;;;;5035646;28;20059;-72
2023/10/12 00:40:31;;;;;;;6.25;1.40;;;12.90;99.90;;;;;;5035528;28;20094;-72
2023/10/12 00:43:00;;;;;;;7.75;1.45;;;12.90;99.90;;;;;;5034860;28;20041;-72
2023/10/12 00:45:30;;;;;;;6.85;1.20;;;12.90;99.90;;;;;;5035791;28;20442;-71
2023/10/12 00:48:01;;;;;;;10.45;1.67;;;12.90;99.90;;;;;;5052191;28;20404;-72
2023/10/12 00:50:28;;;;;;;6.45;1.55;;;12.90;99.90;;;;;;5035500;28;20055;-72
2023/10/12 00:52:58;;;;;;;7.93;1.50;;;12.90;99.90;;;;;;5052894;28;20033;-72
2023/10/12 00:55:36;;;;;;;9.27;2.03;;;12.80;99.90;;;;;;5035185;28;20048;-71
2023/10/12 00:58:08;;;;;;;11.07;1.60;;;12.80;99.90;;;;;;5035273;28;20132;-72
2023/10/12 01:00:45;;;;;;;9.45;2.15;;;12.80;99.90;;;;;;5035673;28;20400;-72
2023/10/12 01:08:35;;;;;;;14.02;1.90;;;12.90;99.90;;;;;;5035601;28;20049;-72
2023/10/12 01:11:07;;;;;;;10.93;1.98;;;13.20;99.90;;;;;;5052230;28;20041;-71
2023/10/12 01:13:33;;;;;;;6.65;1.25;;;12.80;99.90;;;;;;5035308;28;20088;-72
2023/10/12 01:16:08;;;;;;;6.30;1.50;;;12.80;99.90;;;;;;5034828;28;20044;-71
2023/10/12 01:18:34;;;;;;;9.10;2.03;;;12.80;99.90;;;;;;5053041;28;20044;-72
2023/10/12 01:21:03;;;;;;;8.00;1.80;;;12.70;99.90;;;;;;5035189;28;20037;-72
2023/10/12 01:23:30;;;;;;;7.90;1.70;;;12.80;99.90;;;;;;5051696;28;20099;-72
2023/10/12 01:26:09;;;;;;;10.77;1.58;;;12.80;99.90;;;;;;5034593;28;20396;-72
2023/10/12 01:28:35;;;;;;;10.45;1.83;;;12.70;99.90;;;;;;5034740;28;20119;-72
2023/10/12 01:31:03;;;;;;;5.32;1.50;;;12.70;99.90;;;;;;5033666;28;20204;-72
2023/10/12 01:33:28;;;;;;;8.43;1.48;;;12.70;99.90;;;;;;5035028;28;20455;-72
2023/10/12 01:35:56;;;;;;;7.53;1.75;;;12.80;99.90;;;;;;5052305;28;20131;-72
2023/10/12 01:38:22;;;;;;;7.68;1.42;;;12.60;99.90;;;;;;5034291;28;20465;-72
2023/10/12 01:40:54;;;;;;;9.30;1.58;;;12.80;99.90;;;;;;5052413;28;20049;-72
2023/10/12 01:43:20;;;;;;;8.63;1.45;;;13.10;99.90;;;;;;5035194;28;20084;-72
2023/10/12 01:45:54;;;;;;;9.75;1.50;;;12.50;99.90;;;;;;5051846;28;20049;-71
2023/10/12 01:48:22;;;;;;;10.48;1.55;;;12.50;99.90;;;;;;5034804;28;20514;-72
2023/10/12 01:50:49;;;;;;;9.63;2.55;;;12.70;99.90;;;;;;5034317;28;20124;-72
2023/10/12 01:55:52;;;;;;;10.85;1.90;;;12.50;99.90;;;;;;5034723;28;20061;-72
2023/10/12 01:58:19;;;;;;;8.90;1.40;;;12.70;99.90;;;;;;5034109;28;20049;-72
2023/10/12 02:00:51;;;;;;;6.88;1.30;;;12.40;99.90;;;;;;5034303;28;20052;-72
2023/10/12 02:03:26;;;;;;;8.52;1.52;;;12.70;99.90;;;;;;5052747;28;20076;-72
2023/10/12 02:06:02;;;;;;;8.93;1.52;;;12.50;99.90;;;;;;5051393;28;20040;-72
2023/10/12 02:08:32;;;;;;;6.75;1.63;;;12.50;99.90;;;;;;5034754;28;20449;-72
2023/10/12 02:11:09;;;;;;;8.88;1.42;;;12.50;99.90;;;;;;5034223;28;20507;-72
2023/10/12 02:13:35;;;;;;;10.63;2.33;;;12.30;99.90;;;;;;5051700;28;20040;-72
2023/10/12 02:16:07;;;;;;;9.77;2.03;;;12.70;99.90;;;;;;5034329;28;20045;-72
2023/10/12 02:18:35;;;;;;;8.23;1.60;;;12.20;99.90;;;;;;5034827;28;20082;-72
2023/10/12 02:21:09;;;;;;;9.10;1.38;;;12.30;99.90;;;;;;5033087;28;20092;-72
2023/10/12 02:23:53;;;;;;;6.78;1.70;;;12.20;99.90;;;;;;5052389;28;20080;-72
2023/10/12 02:26:38;;;;;;;7.38;1.33;;;12.20;99.90;;;;;;5034477;28;20045;-72
2023/10/12 02:34:19;;;;;;;8.48;1.10;;;12.20;99.90;;;;;;5033945;28;20053;-72
2023/10/12 02:37:06;;;;;;;6.15;1.50;;;12.10;99.90;;;;;;5034637;28;20052;-72
2023/10/12 02:39:40;;;;;;;;;;;12.10;99.90;;;;;;5052629;28;20041;-72
2023/10/12 02:47:31;;;;;;;8.15;1.50;;;12.00;99.90;;;;;;5000137;28;20397;-72
2023/10/12 02:50:02;;;;;;;8.68;1.33;;;12.00;99.90;;;;;;5014045;28;20053;-72
2023/10/12 02:52:32;;;;;;;7.95;1.40;;;11.90;99.90;;;;;;5014772;28;20045;-72
2023/10/12 02:55:07;;;;;;;11.10;1.27;;;11.90;99.90;;;;;;5034343;28;20447;-72
2023/10/12 02:57:32;;;;;;;6.43;1.33;;;11.90;99.90;;;;;;5035938;28;20068;-72
2023/10/12 03:00:12;;;;;;;7.28;1.63;;;11.90;99.90;;;;;;5035284;28;20053;-72
2023/10/12 03:02:41;;;;;;;7.50;1.38;;;11.90;99.90;;;;;;5027981;28;20048;-72
2023/10/12 03:05:07;;;;;;;5.53;1.27;;;12.20;99.90;;;;;;5055139;28;20103;-72
2023/10/12 03:07:39;;;;;;;5.00;1.40;;;11.80;99.90;;;;;;5055430;28;20452;-72
2023/10/12 03:10:15;;;;;;;6.82;1.25;;;11.80;99.90;;;;;;5036120;28;20049;-72
2023/10/12 03:12:43;;;;;;;6.37;1.37;;;11.80;99.90;;;;;;5037454;28;20086;-72
2023/10/12 03:15:15;;;;;;;6.13;1.40;;;11.70;99.90;;;;;;5020674;28;20048;-72
2023/10/12 03:17:58;;;;;;;10.70;1.65;;;11.70;99.90;;;;;;5037152;28;20063;-72
2023/10/12 03:20:28;;;;;;;7.35;1.30;;;11.70;99.90;;;;;;5055017;28;20091;-72
2023/10/12 03:22:59;;;;;;;5.47;1.30;;;12.00;99.90;;;;;;5036430;28;20044;-72
2023/10/12 03:25:43;;;;;;;8.73;1.75;;;11.70;99.90;;;;;;5037517;28;20048;-72
2023/10/12 03:28:13;;;;;;;8.77;1.75;;;11.70;99.90;;;;;;5054928;28;20045;-72
2023/10/12 03:30:53;;;;;;;7.28;1.63;;;11.60;99.90;;;;;;5053887;28;20484;-71
2023/10/12 03:33:19;;;;;;;6.35;1.52;;;11.60;99.90;;;;;;5037429;28;20053;-71
2023/10/12 03:36:13;;;;;;;9.63;1.65;;;11.70;99.90;;;;;;5055022;28;20037;-71
2023/10/12 03:38:39;;;;;;;7.55;1.38;;;11.60;99.90;;;;;;5036505;28;20053;-71
2023/10/12 03:44:02;;;;;;;5.22;1.23;;;11.60;99.90;;;;;;5053687;28;20583;-72
2023/10/12 03:46:28;;;;;;;6.97;1.40;;;11.70;99.90;;;;;;5036640;28;20095;-72
2023/10/12 03:49:23;;;;;;;9.38;1.25;;;11.80;99.90;;;;;;5053963;28;20057;-71
2023/10/12 03:51:48;;;;;;;7.18;1.40;;;11.70;99.90;;;;;;5035785;28;20057;-72
2023/10/12 03:54:26;;;;;;;5.50;1.50;;;11.50;99.90;;;;;;5036440;28;20095;-71
2023/10/12 03:56:54;;;;;;;9.57;1.60;;;11.90;99.90;;;;;;5017077;28;20049;-72
2023/10/12 03:59:31;;;;;;;5.93;1.25;;;11.80;99.90;;;;;;5016450;28;20087;-71
2023/10/12 04:02:00;;;;;;;5.60;1.17;;;11.90;99.90;;;;;;5049020;28;20053;-71
2023/10/12 04:04:29;;;;;;;7.82;1.30;;;11.40;99.90;;;;;;5035925;28;20041;-71
2023/10/12 04:07:16;;;;;;;6.90;1.35;;;11.30;99.90;;;;;;5035578;28;20124;-71
2023/10/12 04:09:43;;;;;;;7.82;1.40;;;11.60;99.90;;;;;;5053705;28;20107;-71
2023/10/12 04:12:19;;;;;;;7.88;1.40;;;11.30;99.90;;;;;;5034237;28;20084;-70
2023/10/12 04:14:52;;;;;;;8.67;1.37;;;11.30;99.90;;;;;;5054200;28;20081;-71
2023/10/12 04:25:13;;;;;;;8.17;1.30;;;11.20;99.90;;;;;;5052588;28;20048;-72
2023/10/12 04:27:41;;;;;;;5.90;1.10;;;11.20;99.90;;;;;;5052568;28;20306;-72
2023/10/12 04:30:20;;;;;;;10.68;1.40;;;11.40;99.90;;;;;;5035707;28;20057;-72
2023/10/12 04:35:20;;;;;;;6.47;1.13;;;11.10;99.90;;;;;;5035333;28;20061;-72
2023/10/12 04:37:46;;;;;;;4.80;1.30;;;11.00;99.90;;;;;;5035666;28;20073;-72
2023/10/12 04:43:00;;;;;;;6.25;1.40;;;11.00;99.90;;;;;;5031754;28;20124;-71
2023/10/12 04:45:28;;;;;;;6.88;1.35;;;11.00;99.90;;;;;;5033836;28;20064;-71
2023/10/12 04:48:08;;;;;;;7.93;1.30;;;11.20;99.90;;;;;;5042667;28;20057;-72
2023/10/12 04:51:18;;;;;;;6.45;1.33;;;11.40;99.90;;;;;;5053273;28;20138;-71
2023/10/12 04:53:35;;;;;;;5.43;1.42;;;10.90;99.90;;;;;;5042396;28;20049;-72
2023/10/12 04:56:09;;;;;;;7.93;1.40;;;11.20;99.90;;;;;;5034594;28;20045;-72
2023/10/12 04:58:36;;;;;;;8.30;1.35;;;10.80;99.90;;;;;;5035387;28;20374;-73
2023/10/12 05:01:24;;;;;;;5.30;1.50;;;11.10;99.90;;;;;;5053155;28;20033;-72
2023/10/12 05:06:37;;;;;;;8.18;1.33;;;10.80;99.90;;;;;;5053362;28;20049;-75
2023/10/12 05:09:11;;;;;;;9.02;1.33;;;11.00;99.90;;;;;;5034066;28;20045;-75
2023/10/12 05:11:37;;;;;;;8.50;1.27;;;10.90;99.90;;;;;;5053109;28;20059;-77
2023/10/12 05:14:13;;;;;;;8.02;1.77;;;11.10;99.90;;;;;;5052334;28;20126;-73
2023/10/12 05:16:42;;;;;;;6.38;1.42;;;10.90;99.90;;;;;;5034138;28;20187;-72
2023/10/12 05:19:10;;;;;;;7.07;1.85;;;11.20;99.90;;;;;;5035305;28;20147;-71
2023/10/12 05:21:35;;;;;;;8.85;1.40;;;11.00;99.90;;;;;;5053067;28;20047;-73
2023/10/12 05:24:01;;;;;;;10.15;1.58;;;10.90;99.90;;;;;;5051746;28;20458;-73
2023/10/12 05:26:26;;;;;;;8.18;1.40;;;11.20;99.90;;;;;;5035361;28;20510;-72
2023/10/12 05:29:17;;;;;;;6.70;1.38;;;10.80;99.90;;;;;;5052609;28;20045;-71
2023/10/12 05:31:48;;;;;;;4.00;1.33;;;10.80;99.90;;;;;;5034961;28;20102;-69
2023/10/12 05:34:32;;;;;;;6.43;1.30;;;10.70;99.90;;;;;;5033881;28;20057;-69
2023/10/12 05:37:00;;;;;;;8.50;1.50;;;10.60;99.90;;;;;;5053582;28;20051;-70
2023/10/12 05:39:27;;;;;;;7.00;1.20;;;10.70;99.90;;;;;;5033402;28;20049;-69
2023/10/12 05:41:57;;;;;;;5.80;1.42;;;10.50;99.90;;;;;;5053743;28;20149;-69
2023/10/12 05:44:26;;;;;;;8.02;1.55;;;10.50;99.90;;;;;;5031767;28;20443;-69
2023/10/12 05:46:52;;;;;;;9.63;1.40;;;10.40;99.90;;;;;;5050307;28;20059;-69
2023/10/12 05:49:23;;;;;;;7.40;1.17;;;10.90;99.90;;;;;;5050192;28;20045;-69
2023/10/12 05:51:48;;;;;;;10.02;4.10;;;10.40;99.90;;;;;;5031905;28;20045;-69
2023/10/12 05:54:20;;;;;;;6.78;1.27;;;10.40;99.90;;;;;;5032883;28;20048;-69
2023/10/12 05:56:49;;;;;;;4.90;1.33;;;10.70;99.90;;;;;;5050042;28;20041;-68
2023/10/12 05:59:15;;;;;;;5.35;1.50;;;10.30;99.90;;;;;;5051771;28;20057;-69
2023/10/12 06:01:48;;;;;;;8.25;1.90;;;10.30;99.90;;;;;;5034294;28;20073;-69
2023/10/12 06:04:20;;;;;;;9.40;1.42;;;10.30;99.90;;;;;;5034586;28;20045;-69
2023/10/12 06:06:47;;;;;;;9.73;1.50;;;10.20;99.90;;;;;;5033594;28;20037;-69
2023/10/12 06:09:24;;;;;;;6.55;1.27;;;10.40;99.90;;;;;;5052236;28;20057;-69
2023/10/12 06:11:51;;;;;;;10.43;1.63;;;10.50;99.90;;;;;;5013709;28;20041;-68
2023/10/12 06:14:23;;;;;;;6.85;1.50;;;10.20;99.90;;;;;;5015078;28;20049;-69
2023/10/12 06:16:54;;;;;;;9.50;1.48;;;10.10;99.90;;;;;;5026179;28;20052;-70
2023/10/12 06:21:52;;;;;;;5.22;1.30;;;10.10;99.90;;;;;;5034390;28;20548;-69
2023/10/12 06:24:30;;;;;;;6.38;1.40;;;10.00;99.90;;;;;;5034504;28;20056;-72
2023/10/12 06:26:56;;;;;;;6.05;1.30;;;10.50;99.90;;;;;;5033454;28;20060;-68
2023/10/12 06:29:26;;;;;;;5.05;1.10;;;10.00;99.90;;;;;;5037172;28;20051;-69
2023/10/12 06:31:54;;;;;;;9.30;1.75;;;10.00;99.90;;;;;;5038171;28;20754;-69
2023/10/12 06:34:23;;;;;;;10.20;2.22;;;10.00;99.90;;;;;;5037067;28;20044;-69
2023/10/12 06:36:58;;;;;;;8.40;1.80;;;10.10;99.90;;;;;;5035996;28;20064;-68
2023/10/12 06:42:26;;;;;;;11.02;1.80;;;10.10;99.90;;;;;;5034842;28;20057;-69
2023/10/12 06:44:52;;;;;;;6.60;1.70;;;10.20;99.90;;;;;;5019035;28;20116;-69
2023/10/12 06:47:32;;;;;;;6.72;1.48;;;10.20;99.90;;;;;;5054324;28;20136;-73
2023/10/12 06:50:00;;;;;;;6.22;2.35;;;11.20;99.90;;;;;;5045290;28;20049;-72
2023/10/12 06:52:26;;;;;;;5.82;1.95;;;10.30;99.90;;;;;;5034288;28;20041;-73
2023/10/12 06:54:59;;;;;;;7.70;1.70;;;10.40;99.90;;;;;;5031608;28;20049;-71
2023/10/12 06:59:52;;;;;;;9.05;1.80;;;10.70;99.90;;;;;;5052313;28;20051;-71
2023/10/12 07:02:24;;;;;;;6.43;1.77;;;10.80;99.90;;;;;;5034667;28;20403;-70
2023/10/12 07:04:53;;;;;;;8.98;1.67;;;11.30;99.90;;;;;;5036435;28;20056;-71
2023/10/12 07:07:36;;;;;;;8.90;1.80;;;11.10;99.90;;;;;;5036689;28;20056;-71
2023/10/12 07:12:45;;;;;;;5.60;1.50;;;11.40;99.90;;;;;;5055579;28;20400;-71
2023/10/12 07:15:23;;;;;;;9.15;1.75;;;11.60;99.90;;;;;;5054325;28;20292;-71
2023/10/12 07:17:50;;;;;;;6.80;1.33;;;11.80;99.90;;;;;;5054979;28;20053;-71
2023/10/12 07:23:14;;;;;;;9.68;1.80;;;12.00;99.90;;;;;;5023707;28;20049;-71
2023/10/12 07:25:57;;;;;;;6.32;1.88;;;12.30;99.90;;;;;;5037241;28;20119;-71
2023/10/12 07:28:32;;;;;;;5.78;1.65;;;12.30;99.90;;;;;;5055405;28;20052;-71
2023/10/12 07:33:51;;;;;;;11.00;1.85;;;12.70;99.90;;;;;;5055132;28;20139;-71
2023/10/12 07:36:17;;;;;;;5.30;1.67;;;12.70;99.90;;;;;;5036238;28;20435;-71
2023/10/12 07:38:45;;;;;;;7.82;1.88;;;12.90;99.90;;;;;;5036872;28;20065;-72
2023/10/12 07:41:11;;;;;;;9.63;1.80;;;13.00;99.90;;;;;;5054695;28;20484;-71
2023/10/12 07:43:38;;;;;;;6.68;1.77;;;13.10;99.90;;;;;;5036230;28;20052;-72
2023/10/12 07:46:12;;;;;;;6.18;1.60;;;13.20;99.90;;;;;;5036619;28;20090;-72
2023/10/12 07:48:45;;;;;;;11.00;1.85;;;13.20;99.90;;;;;;5054331;28;20049;-72
2023/10/12 07:51:53;;;;;;;8.25;1.88;;;13.40;99.90;;;;;;5035710;28;20481;-71
2023/10/12 07:54:25;;;;;;;7.28;1.50;;;13.50;99.90;;;;;;5033678;28;20150;-72
2023/10/12 07:56:52;;;;;;;8.65;1.90;;;13.50;99.90;;;;;;5036458;28;20068;-71
2023/10/12 07:59:22;;;;;;;7.72;1.80;;;13.50;99.90;;;;;;5052965;28;20053;-71
2023/10/12 08:01:50;;;;;;;6.15;1.67;;;13.60;99.90;;;;;;5054278;28;20037;-71
2023/10/12 08:04:31;;;;;;;9.73;1.70;;;13.50;99.90;;;;;;5035334;28;20048;-72
2023/10/12 08:06:57;;;;;;;6.57;1.70;;;14.30;99.90;;;;;;5035733;28;20052;-71
2023/10/12 08:11:53;;;;;;;7.53;1.90;;;13.60;99.90;;;;;;5053196;28;20057;-70
2023/10/12 08:14:41;;;;;;;8.02;1.80;;;13.60;99.90;;;;;;5036349;28;20041;-70
2023/10/12 08:19:56;;;;;;;7.63;1.80;;;13.80;99.90;;;;;;5052990;28;20411;-71
2023/10/12 08:22:26;;;;;;;7.47;1.85;;;13.80;99.90;;;;;;5036038;28;20545;-69
2023/10/12 08:25:04;;;;;;;7.93;1.85;;;13.80;99.90;;;;;;5053723;28;20052;-70
2023/10/12 08:27:43;;;;;;;7.10;1.80;;;13.80;99.90;;;;;;5016272;28;20045;-71
2023/10/12 08:33:09;;;;;;;8.20;1.80;;;13.80;99.90;;;;;;5001883;28;20132;-72
2023/10/12 08:38:32;;;;;;;7.22;1.75;;;14.00;99.90;;;;;;5035919;28;20045;-72
2023/10/12 08:43:45;;;;;;;8.98;1.75;;;14.40;99.90;;;;;;5035071;28;20470;-72
2023/10/12 08:46:12;;;;;;;11.05;2.08;;;14.50;99.90;;;;;;5035026;28;20088;-72
2023/10/12 08:48:52;;;;;;;10.80;1.83;;;15.20;99.90;;;;;;5053464;28;20052;-72
2023/10/12 08:51:29;;;;;;;11.35;2.00;;;16.00;99.90;;;;;;5052803;28;20048;-72
2023/10/12 08:54:00;;;;;;;9.57;1.70;;;16.60;99.90;;;;;;5052488;28;20044;-73
2023/10/12 08:56:27;;;;;;;6.80;1.65;;;16.90;99.90;;;;;;5035498;28;20064;-73
2023/10/12 08:58:57;;;;;;;7.28;1.58;;;17.40;99.90;;;;;;5053186;28;20057;-71
2023/10/12 09:01:23;;;;;;;5.80;1.70;;;18.10;99.90;;;;;;5034750;28;20053;-72
2023/10/12 09:03:53;;;;;;;6.38;1.92;;;18.70;99.90;;;;;;5053006;28;20113;-72
2023/10/12 09:09:04;;;;;;;6.80;1.27;;;20.80;99.90;;;;;;5052464;28;20045;-71
2023/10/12 09:11:33;;;;;;;8.15;1.73;;;21.90;99.90;;;;;;5052648;28;20048;-70
2023/10/12 09:14:00;;;;;;;5.93;1.58;;;22.50;99.90;;;;;;5035219;28;20078;-70
2023/10/12 09:16:27;;;;;;;8.68;1.73;;;22.30;99.90;;;;;;5031181;28;20041;-71
2023/10/12 09:18:57;;;;;;;6.53;1.30;;;21.90;99.90;;;;;;5032958;28;20041;-71
2023/10/12 09:23:58;;;;;;;5.90;1.30;;;21.60;99.90;;;;;;5034824;28;20056;-70
2023/10/12 09:26:34;;;;;;;5.93;1.37;;;22.00;99.90;;;;;;5052582;28;20442;-70
2023/10/12 09:36:43;;;;;;;8.73;1.80;;;21.30;99.90;;;;;;5034169;28;20057;-69
2023/10/12 09:39:17;;;;;;;5.38;1.50;;;22.50;98.40;;;;;;5034648;28;20056;-69
2023/10/12 09:41:54;;;;;;;5.47;1.40;;;23.80;96.20;;;;;;5052279;28;20040;-70
2023/10/12 09:44:26;;;;;;;7.30;1.80;;;24.00;94.70;;;;;;5034178;28;20151;-69
2023/10/12 09:46:57;;;;;;;5.63;1.70;;;23.90;95.20;;;;;;5033623;28;20114;-69
2023/10/12 09:49:25;;;;;;;7.68;3.40;;;23.70;93.40;;;;;;5034211;28;20155;-69
2023/10/12 09:51:54;;;;;;;6.35;1.67;;;24.10;94.10;;;;;;5034058;28;20120;-69
2023/10/12 09:54:28;;;;;;;9.23;1.70;;;25.50;95.80;;;;;;5052492;28;20037;-69
2023/10/12 09:57:16;;;;;;;6.28;1.85;;;26.20;91.40;;;;;;5033569;28;20055;-69
2023/10/12 09:59:51;;;;;;;7.60;1.48;;;27.30;90.50;;;;;;5052052;28;20045;-70
2023/10/12 10:02:28;;;;;;;5.53;1.35;;;28.40;90.40;;;;;;5035271;28;20136;-71
2023/10/12 10:05:11;;;;;;;6.63;1.30;;;28.90;87.20;;;;;;5037951;28;20053;-71
2023/10/12 10:07:42;;;;;;;5.13;1.45;;;29.00;84.80;;;;;;5039044;28;20148;-71
2023/10/12 10:10:30;;;;;;;7.85;1.30;;;28.90;83.30;;;;;;5056198;28;20102;-71
2023/10/12 10:13:02;;;;;;;6.43;1.50;;;28.70;85.90;;;;;;5053705;28;20045;-72
2023/10/12 10:15:44;;;;;;;4.85;1.42;;;28.50;88.70;;;;;;5038690;28;20113;-72
2023/10/12 10:18:16;;;;;;;4.57;1.40;;;28.60;86.90;;;;;;5055487;28;20397;-70
2023/10/12 10:20:58;;;;;;;6.43;1.27;;;28.50;81.80;;;;;;5038552;28;20119;-70
2023/10/12 10:23:24;;;;;;;5.53;1.40;;;29.00;85.60;;;;;;5038476;28;20136;-71
2023/10/12 10:26:19;;;;;;;4.90;1.50;;;29.50;84.60;;;;;;5037585;28;20048;-70
2023/10/12 10:28:54;;;;;;;7.22;2.20;;;30.40;81.10;;;;;;5056595;28;20469;-74
2023/10/12 10:31:33;;;;;;;6.20;1.60;;;30.60;79.90;;;;;;5038381;28;20484;-72
2023/10/12 10:34:05;;;;;;;8.23;1.92;;;29.50;85.90;;;;;;5036750;28;20047;-74
2023/10/12 10:36:34;;;;;;;5.75;1.60;;;28.40;87.00;;;;;;5056037;28;20107;-73
2023/10/12 10:39:49;;;;;;;5.85;1.50;;;27.00;86.80;;;;;;5037195;28;20102;-71
2023/10/12 10:41:56;;;;;;;6.03;1.73;;;26.20;89.90;;;;;;5026870;28;20051;-71
2023/10/12 10:44:26;;;;;;;6.55;1.27;;;25.90;87.00;;;;;;5055277;28;20410;-71
2023/10/12 10:47:06;;;;;;;6.28;1.48;;;24.50;87.20;;;;;;5037224;28;20045;-71
2023/10/12 10:49:32;;;;;;;6.43;1.40;;;24.10;86.70;;;;;;5037766;28;20053;-71
2023/10/12 10:54:37;;;;;;;7.82;1.30;;;24.80;87.80;;;;;;5035609;28;20139;-72
2023/10/12 10:57:17;;;;;;;7.10;1.48;;;24.60;88.40;;;;;;5036719;28;20108;-71
2023/10/12 10:59:49;;;;;;;4.90;1.27;;;24.10;89.90;;;;;;5054468;28;20052;-71
2023/10/12 11:02:15;;;;;;;5.10;1.30;;;23.30;90.00;;;;;;5055330;28;20107;-71
2023/10/12 11:07:18;;;;;;;6.43;1.40;;;22.10;93.10;;;;;;5036022;28;20107;-72
2023/10/12 11:12:20;;;;;;;6.95;1.45;;;21.30;94.80;;;;;;5055476;28;20052;-73
2023/10/12 11:14:58;;;;;;;5.80;1.15;;;21.10;95.50;;;;;;5053907;28;20072;-72
2023/10/12 11:17:27;;;;;;;6.90;1.13;;;20.90;95.90;;;;;;5037366;28;20049;-72
2023/10/12 11:19:52;;;;;;;5.68;1.40;;;20.70;96.70;;;;;;5036798;28;20127;-72
2023/10/12 11:22:19;;;;;;;5.85;1.52;;;20.60;94.30;;;;;;5035507;28;20128;-72
2023/10/12 11:24:49;;;;;;;6.40;1.40;;;20.40;94.30;;;;;;5029205;28;20092;-72
2023/10/12 11:27:35;;;;;;;4.60;1.50;;;20.30;95.70;;;;;;5037228;28;20048;-72
2023/10/12 11:30:12;;;;;;;7.30;1.55;;;20.30;95.00;;;;;;5036153;28;20045;-72
2023/10/12 11:32:54;;;;;;;6.60;1.92;;;20.10;94.30;;;;;;5037168;28;20045;-72
2023/10/12 11:35:43;;;;;;;7.30;1.40;;;19.90;95.00;;;;;;5053938;28;20143;-72
2023/10/12 11:38:20;;;;;;;8.82;1.60;;;19.80;96.50;;;;;;5016919;28;20081;-72
2023/10/12 11:40:55;;;;;;;6.88;1.48;;;19.70;95.40;;;;;;5017159;28;20041;-72
2023/10/12 11:43:21;;;;;;;5.70;1.27;;;19.60;96.70;;;;;;5016747;28;20539;-72
2023/10/12 11:46:01;;;;;;;6.65;1.35;;;19.70;95.20;;;;;;5019230;28;20079;-72
2023/10/12 11:48:28;;;;;;;7.13;1.40;;;19.40;97.20;;;;;;5036742;28;20080;-73
2023/10/12 11:50:58;;;;;;;4.55;1.20;;;19.30;96.50;;;;;;5053813;28;20045;-72
2023/10/12 11:53:28;;;;;;;6.20;1.60;;;19.30;98.20;;;;;;5036779;28;20409;-74
2023/10/12 11:56:08;;;;;;;6.95;1.40;;;19.10;97.40;;;;;;5054191;28;20045;-72
2023/10/12 11:58:33;;;;;;;8.40;1.30;;;19.30;98.80;;;;;;5036453;28;20483;-73
2023/10/12 12:01:00;;;;;;;7.70;1.50;;;19.30;98.30;;;;;;5036293;28;20053;-72
2023/10/12 12:03:26;;;;;;;8.85;1.60;;;19.40;97.90;;;;;;5035791;28;20052;-72
2023/10/12 12:05:52;;;;;;;6.45;1.50;;;19.40;97.60;;;;;;5035961;28;20397;-71
2023/10/12 12:08:26;;;;;;;7.55;1.60;;;19.00;95.90;;;;;;5054592;28;20423;-71
2023/10/12 12:10:56;;;;;;;7.65;1.33;;;18.90;98.80;;;;;;5053245;28;20404;-73
2023/10/12 12:13:23;;;;;;;6.55;1.55;;;18.80;99.00;;;;;;5036141;28;20037;-73
2023/10/12 12:15:50;;;;;;;7.70;1.52;;;18.80;97.70;;;;;;5035750;28;20078;-73
2023/10/12 12:18:20;;;;;;;5.25;1.30;;;18.50;98.50;;;;;;5035599;28;20090;-73
2023/10/12 12:20:51;;;;;;;8.43;1.55;;;18.40;98.40;;;;;;5053568;28;20104;-73
2023/10/12 12:23:27;;;;;;;7.15;1.33;;;18.40;99.30;;;;;;5035149;28;20047;-73
2023/10/12 12:25:59;;;;;;;5.85;1.30;;;18.20;99.90;;;;;;5012061;28;20050;-73
2023/10/12 12:28:31;;;;;;;6.05;1.33;;;18.20;99.90;;;;;;5014429;28;20049;-73
2023/10/12 12:31:00;;;;;;;6.47;1.48;;;18.00;99.90;;;;;;5032201;28;20049;-73
2023/10/12 12:33:29;;;;;;;6.15;1.70;;;17.90;99.90;;;;;;5050737;28;20053;-73
2023/10/12 12:35:59;;;;;;;8.00;1.40;;;17.80;99.90;;;;;;5033432;28;20037;-73
2023/10/12 12:41:05;;;;;;;4.93;1.03;;;17.70;99.90;;;;;;5053504;28;20515;-73
2023/10/12 12:43:33;;;;;;;8.18;1.60;;;17.60;99.90;;;;;;5053642;28;20547;-73
2023/10/12 12:45:59;;;;;;;6.63;1.67;;;17.50;99.90;;;;;;5034914;28;20385;-73
2023/10/12 12:48:25;;;;;;;5.93;1.55;;;17.50;99.90;;;;;;5035374;28;20063;-73
2023/10/12 12:50:50;;;;;;;6.88;1.40;;;17.30;99.90;;;;;;5052967;28;20092;-73
2023/10/12 12:53:19;;;;;;;9.07;1.70;;;17.30;99.90;;;;;;5034951;28;20072;-73
2023/10/12 12:55:46;;;;;;;8.98;2.03;;;17.20;99.90;;;;;;5035268;28;20049;-73
2023/10/12 12:58:15;;;;;;;7.45;1.55;;;17.10;99.90;;;;;;5053433;28;20119;-73
2023/10/12 13:00:48;;;;;;;5.07;1.58;;;16.90;99.90;;;;;;5034715;28;20076;-73
2023/10/12 13:03:15;;;;;;;7.53;1.55;;;16.90;99.90;;;;;;5035027;28;20044;-73
2023/10/12 13:05:41;;;;;;;7.53;1.63;;;16.70;99.90;;;;;;5035202;28;20049;-73
2023/10/12 13:08:07;;;;;;;6.20;1.30;;;16.70;99.90;;;;;;5034761;28;20060;-73
2023/10/12 13:10:39;;;;;;;5.70;1.40;;;16.70;99.90;;;;;;5035286;28;20052;-73
2023/10/12 13:13:06;;;;;;;6.07;1.50;;;16.60;99.90;;;;;;5052959;28;20047;-73
2023/10/12 13:15:32;;;;;;;7.00;1.40;;;16.50;99.90;;;;;;5034702;28;20048;-73
2023/10/12 13:18:00;;;;;;;5.50;1.40;;;16.40;99.90;;;;;;5052460;28;20045;-73
2023/10/12 13:20:29;;;;;;;10.32;1.65;;;16.50;99.90;;;;;;5035150;28;20059;-73
2023/10/12 13:22:55;;;;;;;7.32;1.50;;;16.30;99.90;;;;;;5034752;28;20045;-73
2023/10/12 13:25:21;;;;;;;5.93;1.27;;;16.30;99.90;;;;;;5053213;28;20051;-73
2023/10/12 13:27:51;;;;;;;6.13;1.60;;;16.10;99.90;;;;;;5033926;28;20037;-73
2023/10/12 13:30:18;;;;;;;8.25;1.58;;;17.00;99.90;;;;;;5035178;28;20064;-73
2023/10/12 13:32:47;;;;;;;9.30;1.88;;;16.10;99.90;;;;;;5052521;28;20037;-73
2023/10/12 13:35:28;;;;;;;9.15;1.80;;;16.00;99.90;;;;;;5034640;28;20389;-73
2023/10/12 13:37:55;;;;;;;8.02;1.45;;;15.90;99.90;;;;;;5052333;28;20080;-73
2023/10/12 13:40:21;;;;;;;7.65;1.30;;;15.80;99.90;;;;;;5052693;28;20041;-73
2023/10/12 13:42:46;;;;;;;7.05;1.40;;;15.80;99.90;;;;;;5051303;28;20370;-73
2023/10/12 13:45:18;;;;;;;7.90;1.55;;;15.80;99.90;;;;;;5034789;28;20052;-73
2023/10/12 13:47:46;;;;;;;6.13;1.33;;;15.80;99.90;;;;;;5052602;28;20068;-73
2023/10/12 13:50:13;;;;;;;6.53;1.13;;;15.70;99.90;;;;;;5034326;28;20049;-73
2023/10/12 13:52:40;;;;;;;8.13;1.52;;;15.70;99.90;;;;;;5052404;28;20094;-73
2023/10/12 13:55:13;;;;;;;7.43;1.30;;;15.70;99.90;;;;;;5036423;28;20057;-74
2023/10/12 13:57:55;;;;;;;6.65;1.67;;;15.60;99.90;;;;;;5046542;28;20060;-78
2023/10/12 14:00:33;;;;;;;8.57;1.60;;;15.70;99.90;;;;;;5052316;28;20503;-77
2023/10/12 14:03:10;;;;;;;11.07;1.73;;;15.50;99.90;;;;;;5022018;28;20876;-75
2023/10/12 14:05:40;;;;;;;4.47;1.30;;;15.50;99.90;;;;;;5026849;28;20041;-75
2023/10/12 14:08:08;;;;;;;7.82;1.48;;;15.50;99.90;;;;;;5040392;28;20444;-75
2023/10/12 14:10:41;;;;;;;9.52;1.67;;;15.40;99.90;;;;;;5031700;28;20386;-73
2023/10/12 14:13:12;;;;;;;8.10;1.23;;;15.40;99.90;;;;;;5031787;28;20081;-74
2023/10/12 14:15:38;;;;;;;9.00;1.65;;;15.30;99.90;;;;;;5050808;28;20489;-74
2023/10/12 14:18:05;;;;;;;6.15;1.40;;;15.20;99.90;;;;;;5031999;28;20131;-75
2023/10/12 14:20:33;;;;;;;8.95;2.00;;;15.30;99.90;;;;;;5049348;28;20075;-75
2023/10/12 14:23:06;;;;;;;7.53;1.60;;;15.20;99.90;;;;;;5031103;28;20051;-75
2023/10/12 14:25:43;;;;;;;8.45;1.50;;;15.20;99.90;;;;;;5032394;28;20136;-75
2023/10/12 14:28:10;;;;;;;5.88;1.38;;;15.20;99.90;;;;;;5032772;28;20491;-75
2023/10/12 14:30:36;;;;;;;7.13;1.40;;;15.10;99.90;;;;;;5048448;28;20037;-74
2023/10/12 14:33:04;;;;;;;6.57;1.90;;;15.10;99.90;;;;;;5029719;28;20048;-73
2023/10/12 14:35:40;;;;;;;8.15;1.80;;;15.10;99.90;;;;;;5031947;28;20056;-74
2023/10/12 14:38:08;;;;;;;9.45;1.73;;;15.10;99.90;;;;;;5030819;28;20163;-73
2023/10/12 14:40:40;;;;;;;10.75;2.35;;;15.10;99.90;;;;;;5049854;28;20044;-72
2023/10/12 14:43:06;;;;;;;6.05;1.45;;;15.10;99.90;;;;;;5030897;28;20867;-74